FIN64L LATI-EFHK
Flight info
| Callsign | FIN64L |
|---|---|
| Flight time | 2h 42m |
| Altitude | 36000 |
| Route | RINAV DCT ALELU DCT PARAK DCT KOJOT DCT PODAN DCT BOKSU DCT GUNTA DCT SOKVA DCT ANAMA DCT KEMET DCT KEXLE DCT BEKNA DCT INTOR |
| Aircraft | A320/M-SDE3FGHIRWY/LB1 |
Departure
| Time | 2026-05-07 15:16 |
|---|---|
| Airport | Tirana International Airport Mother Teresa (LATI) |
Arrival
| Time | 2026-05-07 17:58 |
|---|---|
| Airport | Helsinki Vantaa Airport (EFHK) |
| Time | Latitude | Longitude | Altitude | Speed | Heading |
|---|---|---|---|---|---|
| 2026-05-07 14:48 | 41.42029 | 19.71504 | 122 ft | 0 kts | 265° |
| 2026-05-07 15:03 | 41.42029 | 19.71508 | 122 ft | 2 kts | 265° |
| 2026-05-07 15:04 | 41.42031 | 19.71530 | 118 ft | 3 kts | 268° |
| 2026-05-07 15:04 | 41.42029 | 19.71553 | 118 ft | 3 kts | 290° |
| 2026-05-07 15:04 | 41.42023 | 19.71570 | 119 ft | 2 kts | 321° |
| 2026-05-07 15:04 | 41.42012 | 19.71579 | 120 ft | 3 kts | 352° |
| 2026-05-07 15:05 | 41.42012 | 19.71580 | 120 ft | 0 kts | 352° |
| 2026-05-07 15:11 | 41.42018 | 19.71575 | 122 ft | 3 kts | 329° |
| 2026-05-07 15:11 | 41.42004 | 19.71561 | 119 ft | 5 kts | 175° |
| 2026-05-07 15:11 | 41.41928 | 19.71583 | 120 ft | 17 kts | 170° |
| 2026-05-07 15:12 | 41.41814 | 19.71598 | 124 ft | 16 kts | 174° |
| 2026-05-07 15:12 | 41.41703 | 19.71612 | 123 ft | 16 kts | 174° |
| 2026-05-07 15:12 | 41.41597 | 19.71627 | 125 ft | 15 kts | 173° |
| 2026-05-07 15:12 | 41.41474 | 19.71645 | 125 ft | 20 kts | 174° |
| 2026-05-07 15:13 | 41.41319 | 19.71665 | 124 ft | 23 kts | 175° |
| 2026-05-07 15:13 | 41.41157 | 19.71686 | 128 ft | 24 kts | 174° |
| 2026-05-07 15:13 | 41.40988 | 19.71709 | 129 ft | 25 kts | 174° |
| 2026-05-07 15:13 | 41.40815 | 19.71733 | 130 ft | 25 kts | 174° |
| 2026-05-07 15:14 | 41.40662 | 19.71754 | 127 ft | 12 kts | 173° |
| 2026-05-07 15:14 | 41.40631 | 19.71813 | 131 ft | 9 kts | 76° |
| 2026-05-07 15:14 | 41.40646 | 19.71895 | 130 ft | 10 kts | 76° |
| 2026-05-07 15:14 | 41.40663 | 19.71990 | 131 ft | 11 kts | 77° |
| 2026-05-07 15:15 | 41.40683 | 19.72108 | 132 ft | 12 kts | 77° |
| 2026-05-07 15:15 | 41.40724 | 19.72162 | 132 ft | 8 kts | 360° |
| 2026-05-07 15:15 | 41.40810 | 19.72146 | 129 ft | 25 kts | 352° |
| 2026-05-07 15:15 | 41.41244 | 19.72085 | 126 ft | 98 kts | 354° |
| 2026-05-07 15:16 | 41.42123 | 19.71968 | 121 ft | 154 kts | 354° |
| 2026-05-07 15:16 | 41.43267 | 19.71837 | 539 ft | 167 kts | 353° |
| 2026-05-07 15:16 | 41.44442 | 19.71718 | 1235 ft | 171 kts | 354° |
| 2026-05-07 15:16 | 41.45662 | 19.71606 | 1822 ft | 179 kts | 355° |
| 2026-05-07 15:17 | 41.46937 | 19.71505 | 2341 ft | 188 kts | 356° |
| 2026-05-07 15:17 | 41.48271 | 19.71415 | 2889 ft | 196 kts | 356° |
| 2026-05-07 15:17 | 41.49648 | 19.71332 | 3436 ft | 200 kts | 356° |
| 2026-05-07 15:17 | 41.51064 | 19.71215 | 3996 ft | 209 kts | 355° |
| 2026-05-07 15:18 | 41.52524 | 19.71083 | 4495 ft | 218 kts | 354° |
| 2026-05-07 15:18 | 41.54081 | 19.70933 | 4932 ft | 231 kts | 354° |
| 2026-05-07 15:18 | 41.55777 | 19.70871 | 5148 ft | 260 kts | 3° |
| 2026-05-07 15:18 | 41.57627 | 19.71214 | 5736 ft | 272 kts | 8° |
| 2026-05-07 15:19 | 41.59512 | 19.71612 | 6561 ft | 276 kts | 8° |
| 2026-05-07 15:19 | 41.61430 | 19.72017 | 7306 ft | 282 kts | 6° |
| 2026-05-07 15:19 | 41.63403 | 19.72362 | 8031 ft | 291 kts | 5° |
| 2026-05-07 15:19 | 41.65432 | 19.72695 | 8787 ft | 297 kts | 5° |
| 2026-05-07 15:20 | 41.67496 | 19.73040 | 9590 ft | 301 kts | 4° |
| 2026-05-07 15:20 | 41.69559 | 19.73399 | 10330 ft | 305 kts | 4° |
| 2026-05-07 15:20 | 41.71728 | 19.73784 | 10664 ft | 326 kts | 5° |
| 2026-05-07 15:20 | 41.74056 | 19.74206 | 10890 ft | 348 kts | 5° |
| 2026-05-07 15:21 | 41.76478 | 19.74660 | 11466 ft | 356 kts | 5° |
| 2026-05-07 15:21 | 41.78948 | 19.75131 | 12165 ft | 360 kts | 5° |
| 2026-05-07 15:21 | 41.81431 | 19.75608 | 12926 ft | 363 kts | 4° |
| 2026-05-07 15:21 | 41.83912 | 19.76085 | 13621 ft | 366 kts | 4° |
| 2026-05-07 15:22 | 41.86470 | 19.76573 | 14295 ft | 369 kts | 4° |
| 2026-05-07 15:22 | 41.88987 | 19.77051 | 14864 ft | 372 kts | 4° |
| 2026-05-07 15:22 | 41.91563 | 19.77538 | 15449 ft | 375 kts | 4° |
| 2026-05-07 15:22 | 41.94159 | 19.78027 | 16062 ft | 378 kts | 4° |
| 2026-05-07 15:23 | 41.96778 | 19.78524 | 16684 ft | 382 kts | 4° |
| 2026-05-07 15:23 | 41.99422 | 19.79013 | 17236 ft | 385 kts | 3° |
| 2026-05-07 15:23 | 42.02094 | 19.79414 | 17822 ft | 388 kts | 1° |
| 2026-05-07 15:23 | 42.04790 | 19.79746 | 18397 ft | 391 kts | 1° |
| 2026-05-07 15:24 | 42.07512 | 19.80050 | 18903 ft | 394 kts | 1° |
| 2026-05-07 15:24 | 42.10213 | 19.80347 | 19406 ft | 397 kts | 1° |
| 2026-05-07 15:24 | 42.12976 | 19.80662 | 19943 ft | 400 kts | 1° |
| 2026-05-07 15:24 | 42.15758 | 19.80992 | 20415 ft | 403 kts | 1° |
| 2026-05-07 15:25 | 42.18556 | 19.81336 | 20931 ft | 405 kts | 1° |
| 2026-05-07 15:25 | 42.21370 | 19.81692 | 21467 ft | 407 kts | 1° |
| 2026-05-07 15:25 | 42.24203 | 19.82051 | 21995 ft | 410 kts | 1° |
| 2026-05-07 15:25 | 42.27054 | 19.82411 | 22528 ft | 413 kts | 1° |
| 2026-05-07 15:26 | 42.29924 | 19.82773 | 23008 ft | 417 kts | 1° |
| 2026-05-07 15:26 | 42.32813 | 19.83135 | 23137 ft | 428 kts | 1° |
| 2026-05-07 15:26 | 42.35815 | 19.83511 | 23269 ft | 438 kts | 2° |
| 2026-05-07 15:26 | 42.38874 | 19.83899 | 23417 ft | 445 kts | 2° |
| 2026-05-07 15:27 | 42.41984 | 19.84294 | 23549 ft | 453 kts | 2° |
| 2026-05-07 15:27 | 42.45142 | 19.84695 | 23694 ft | 459 kts | 2° |
| 2026-05-07 15:27 | 42.48342 | 19.85095 | 23809 ft | 464 kts | 1° |
| 2026-05-07 15:27 | 42.51575 | 19.85416 | 23925 ft | 469 kts | 0° |
| 2026-05-07 15:28 | 42.54859 | 19.85642 | 24039 ft | 474 kts | 359° |
| 2026-05-07 15:28 | 42.58158 | 19.85808 | 24155 ft | 477 kts | 358° |
| 2026-05-07 15:28 | 42.61442 | 19.85953 | 24278 ft | 480 kts | 358° |
| 2026-05-07 15:28 | 42.64780 | 19.86110 | 24507 ft | 480 kts | 359° |
| 2026-05-07 15:29 | 42.68118 | 19.86289 | 24751 ft | 480 kts | 359° |
| 2026-05-07 15:29 | 42.71454 | 19.86491 | 25003 ft | 480 kts | 359° |
| 2026-05-07 15:29 | 42.74787 | 19.86708 | 25275 ft | 479 kts | 359° |
| 2026-05-07 15:29 | 42.78115 | 19.86928 | 25548 ft | 479 kts | 359° |
| 2026-05-07 15:30 | 42.81439 | 19.87147 | 25822 ft | 478 kts | 359° |
| 2026-05-07 15:30 | 42.84762 | 19.87365 | 26082 ft | 478 kts | 359° |
| 2026-05-07 15:30 | 42.88037 | 19.87576 | 26363 ft | 477 kts | 359° |
| 2026-05-07 15:30 | 42.91350 | 19.87786 | 26669 ft | 476 kts | 359° |
| 2026-05-07 15:31 | 42.94648 | 19.87991 | 26955 ft | 475 kts | 359° |
| 2026-05-07 15:31 | 42.97949 | 19.88196 | 27251 ft | 474 kts | 359° |
| 2026-05-07 15:31 | 43.01243 | 19.88404 | 27549 ft | 474 kts | 359° |
| 2026-05-07 15:31 | 43.04532 | 19.88613 | 27875 ft | 473 kts | 359° |
| 2026-05-07 15:32 | 43.07814 | 19.88818 | 28208 ft | 471 kts | 359° |
| 2026-05-07 15:32 | 43.11086 | 19.89022 | 28540 ft | 470 kts | 359° |
| 2026-05-07 15:32 | 43.14350 | 19.89226 | 28866 ft | 469 kts | 358° |
| 2026-05-07 15:32 | 43.17564 | 19.89427 | 29170 ft | 468 kts | 358° |
| 2026-05-07 15:33 | 43.20816 | 19.89632 | 29512 ft | 467 kts | 359° |
| 2026-05-07 15:33 | 43.24053 | 19.89840 | 29835 ft | 466 kts | 358° |
| 2026-05-07 15:33 | 43.27293 | 19.90050 | 30152 ft | 466 kts | 358° |
| 2026-05-07 15:33 | 43.30525 | 19.90258 | 30435 ft | 464 kts | 358° |
| 2026-05-07 15:34 | 43.33758 | 19.90462 | 30714 ft | 464 kts | 358° |
| 2026-05-07 15:34 | 43.36972 | 19.90664 | 30985 ft | 463 kts | 358° |
| 2026-05-07 15:34 | 43.40191 | 19.90867 | 31232 ft | 463 kts | 358° |
| 2026-05-07 15:34 | 43.43405 | 19.91072 | 31511 ft | 462 kts | 358° |
| 2026-05-07 15:35 | 43.46570 | 19.91279 | 31736 ft | 461 kts | 358° |
| 2026-05-07 15:35 | 43.49772 | 19.91488 | 31997 ft | 460 kts | 358° |
| 2026-05-07 15:35 | 43.52971 | 19.91696 | 32271 ft | 460 kts | 358° |
| 2026-05-07 15:35 | 43.56165 | 19.91904 | 32542 ft | 459 kts | 358° |
| 2026-05-07 15:36 | 43.59356 | 19.92112 | 32796 ft | 459 kts | 358° |
| 2026-05-07 15:36 | 43.62542 | 19.92314 | 33052 ft | 458 kts | 358° |
| 2026-05-07 15:36 | 43.65725 | 19.92515 | 33312 ft | 458 kts | 358° |
| 2026-05-07 15:36 | 43.68907 | 19.92720 | 33566 ft | 458 kts | 359° |
| 2026-05-07 15:37 | 43.72086 | 19.92929 | 33832 ft | 457 kts | 359° |
| 2026-05-07 15:37 | 43.75212 | 19.93134 | 34087 ft | 457 kts | 359° |
| 2026-05-07 15:37 | 43.78386 | 19.93340 | 34305 ft | 457 kts | 359° |
| 2026-05-07 15:37 | 43.81562 | 19.93545 | 34512 ft | 457 kts | 359° |
| 2026-05-07 15:38 | 43.84739 | 19.93748 | 34717 ft | 457 kts | 359° |
| 2026-05-07 15:38 | 43.87918 | 19.93951 | 34900 ft | 457 kts | 359° |
| 2026-05-07 15:38 | 43.91099 | 19.94156 | 35097 ft | 458 kts | 359° |
| 2026-05-07 15:38 | 43.94280 | 19.94364 | 35300 ft | 458 kts | 359° |
| 2026-05-07 15:39 | 43.97461 | 19.94574 | 35482 ft | 458 kts | 359° |
| 2026-05-07 15:39 | 44.00600 | 19.94781 | 35653 ft | 458 kts | 359° |
| 2026-05-07 15:39 | 44.03817 | 19.94995 | 35838 ft | 458 kts | 359° |
| 2026-05-07 15:39 | 44.06958 | 19.95206 | 35995 ft | 458 kts | 359° |
| 2026-05-07 15:40 | 44.13376 | 19.95627 | 36031 ft | 465 kts | 359° |
| 2026-05-07 15:40 | 44.19863 | 19.96049 | 36031 ft | 467 kts | 359° |
| 2026-05-07 15:41 | 44.26370 | 19.96473 | 36035 ft | 468 kts | 359° |
| 2026-05-07 15:41 | 44.32843 | 19.96894 | 36032 ft | 469 kts | 359° |
| 2026-05-07 15:42 | 44.39366 | 19.97326 | 36030 ft | 469 kts | 359° |
| 2026-05-07 15:42 | 44.45886 | 19.97763 | 36030 ft | 470 kts | 359° |
| 2026-05-07 15:43 | 44.52420 | 19.98195 | 36035 ft | 470 kts | 359° |
| 2026-05-07 15:43 | 44.58916 | 19.98628 | 36036 ft | 471 kts | 359° |
| 2026-05-07 15:44 | 44.65460 | 19.99075 | 36039 ft | 471 kts | 359° |
| 2026-05-07 15:44 | 44.72009 | 19.99501 | 36039 ft | 471 kts | 359° |
| 2026-05-07 15:45 | 44.78562 | 19.99936 | 36042 ft | 472 kts | 359° |
| 2026-05-07 15:45 | 44.85114 | 20.00376 | 36023 ft | 472 kts | 359° |
| 2026-05-07 15:46 | 44.94920 | 20.01047 | 36021 ft | 473 kts | 359° |
| 2026-05-07 15:47 | 45.01496 | 20.01498 | 36025 ft | 473 kts | 359° |
| 2026-05-07 15:47 | 45.08075 | 20.01936 | 36021 ft | 473 kts | 359° |
| 2026-05-07 15:48 | 45.14661 | 20.02376 | 36028 ft | 474 kts | 359° |
| 2026-05-07 15:48 | 45.21254 | 20.02821 | 36029 ft | 474 kts | 359° |
| 2026-05-07 15:49 | 45.26736 | 20.03193 | 36030 ft | 475 kts | 359° |
| 2026-05-07 15:49 | 45.34410 | 20.03728 | 36023 ft | 475 kts | 359° |
| 2026-05-07 15:50 | 45.41023 | 20.04177 | 36025 ft | 476 kts | 359° |
| 2026-05-07 15:50 | 45.46532 | 20.04557 | 36029 ft | 477 kts | 359° |
| 2026-05-07 15:51 | 45.53152 | 20.05015 | 36031 ft | 477 kts | 359° |
| 2026-05-07 15:51 | 45.60868 | 20.05546 | 36028 ft | 478 kts | 359° |
| 2026-05-07 15:52 | 45.67504 | 20.05997 | 36024 ft | 478 kts | 359° |
| 2026-05-07 15:52 | 45.73033 | 20.06377 | 36028 ft | 479 kts | 359° |
| 2026-05-07 15:53 | 45.79690 | 20.06848 | 36026 ft | 479 kts | 359° |
| 2026-05-07 15:53 | 45.87433 | 20.07390 | 36032 ft | 480 kts | 359° |
| 2026-05-07 15:54 | 45.93027 | 20.07782 | 36029 ft | 480 kts | 359° |
| 2026-05-07 15:54 | 45.99385 | 20.08224 | 36030 ft | 480 kts | 359° |
| 2026-05-07 15:55 | 46.06333 | 20.08710 | 36033 ft | 481 kts | 359° |
| 2026-05-07 15:55 | 46.13018 | 20.09181 | 35944 ft | 481 kts | 359° |
| 2026-05-07 15:55 | 46.16360 | 20.09564 | 35794 ft | 484 kts | 5° |
| 2026-05-07 15:56 | 46.19650 | 20.10552 | 35593 ft | 481 kts | 11° |
| 2026-05-07 15:56 | 46.22892 | 20.11713 | 35383 ft | 479 kts | 11° |
| 2026-05-07 15:56 | 46.26082 | 20.12854 | 35198 ft | 478 kts | 11° |
| 2026-05-07 15:56 | 46.29315 | 20.14004 | 35000 ft | 478 kts | 11° |
| 2026-05-07 15:57 | 46.32539 | 20.15142 | 35027 ft | 478 kts | 11° |
| 2026-05-07 15:57 | 46.39014 | 20.17430 | 35025 ft | 479 kts | 11° |
| 2026-05-07 15:58 | 46.45489 | 20.19736 | 35022 ft | 479 kts | 11° |
| 2026-05-07 15:58 | 46.51923 | 20.22045 | 35027 ft | 479 kts | 11° |
| 2026-05-07 15:59 | 46.58402 | 20.24378 | 35030 ft | 480 kts | 11° |
| 2026-05-07 15:59 | 46.64886 | 20.26699 | 35034 ft | 480 kts | 11° |
| 2026-05-07 16:00 | 46.71373 | 20.29024 | 35032 ft | 480 kts | 11° |
| 2026-05-07 16:00 | 46.77855 | 20.31368 | 35029 ft | 481 kts | 11° |
| 2026-05-07 16:01 | 46.84305 | 20.33704 | 35029 ft | 481 kts | 11° |
| 2026-05-07 16:01 | 46.90805 | 20.36059 | 35032 ft | 481 kts | 11° |
| 2026-05-07 16:02 | 46.97308 | 20.38424 | 35036 ft | 482 kts | 11° |
| 2026-05-07 16:02 | 47.03812 | 20.40796 | 35035 ft | 482 kts | 11° |
| 2026-05-07 16:03 | 47.10275 | 20.43147 | 35036 ft | 482 kts | 11° |
| 2026-05-07 16:03 | 47.16774 | 20.45521 | 35034 ft | 482 kts | 11° |
| 2026-05-07 16:04 | 47.23279 | 20.47913 | 35035 ft | 482 kts | 11° |
| 2026-05-07 16:04 | 47.29782 | 20.50319 | 35035 ft | 482 kts | 11° |
| 2026-05-07 16:05 | 47.36286 | 20.52724 | 35033 ft | 482 kts | 11° |
| 2026-05-07 16:05 | 47.42749 | 20.55107 | 35028 ft | 482 kts | 11° |
| 2026-05-07 16:06 | 47.49255 | 20.57517 | 35028 ft | 482 kts | 11° |
| 2026-05-07 16:06 | 47.55762 | 20.59941 | 35026 ft | 482 kts | 11° |
| 2026-05-07 16:07 | 47.62267 | 20.62383 | 35026 ft | 482 kts | 11° |
| 2026-05-07 16:07 | 47.68724 | 20.64794 | 35025 ft | 482 kts | 11° |
| 2026-05-07 16:08 | 47.75234 | 20.67224 | 35026 ft | 482 kts | 11° |
| 2026-05-07 16:08 | 47.81743 | 20.69662 | 35015 ft | 482 kts | 11° |
| 2026-05-07 16:09 | 47.88251 | 20.72111 | 35013 ft | 482 kts | 11° |
| 2026-05-07 16:09 | 47.94716 | 20.74553 | 35011 ft | 482 kts | 11° |
| 2026-05-07 16:10 | 48.01214 | 20.77024 | 35011 ft | 482 kts | 11° |
| 2026-05-07 16:10 | 48.07717 | 20.79503 | 35008 ft | 482 kts | 11° |
| 2026-05-07 16:11 | 48.14220 | 20.81967 | 35006 ft | 482 kts | 11° |
| 2026-05-07 16:11 | 48.20720 | 20.84438 | 35008 ft | 482 kts | 11° |
| 2026-05-07 16:12 | 48.27175 | 20.86901 | 35009 ft | 482 kts | 11° |
| 2026-05-07 16:12 | 48.33659 | 20.89395 | 35007 ft | 481 kts | 11° |
| 2026-05-07 16:13 | 48.40147 | 20.91898 | 35003 ft | 481 kts | 11° |
| 2026-05-07 16:13 | 48.46631 | 20.94400 | 34991 ft | 481 kts | 11° |
| 2026-05-07 16:14 | 48.53113 | 20.96905 | 34981 ft | 481 kts | 11° |
| 2026-05-07 16:14 | 48.59546 | 20.99403 | 34977 ft | 480 kts | 11° |
| 2026-05-07 16:15 | 48.66021 | 21.01911 | 34971 ft | 480 kts | 11° |
| 2026-05-07 16:15 | 48.72484 | 21.04428 | 34969 ft | 480 kts | 11° |
| 2026-05-07 16:16 | 48.78948 | 21.06962 | 34974 ft | 480 kts | 11° |
| 2026-05-07 16:16 | 48.85410 | 21.09497 | 34979 ft | 479 kts | 11° |
| 2026-05-07 16:17 | 48.91868 | 21.12036 | 34983 ft | 479 kts | 11° |
| 2026-05-07 16:17 | 48.98244 | 21.14786 | 34985 ft | 482 kts | 19° |
| 2026-05-07 16:18 | 49.04418 | 21.18890 | 34955 ft | 486 kts | 21° |
| 2026-05-07 16:18 | 49.10617 | 21.23070 | 34951 ft | 488 kts | 21° |
| 2026-05-07 16:19 | 49.16832 | 21.27272 | 34950 ft | 490 kts | 21° |
| 2026-05-07 16:19 | 49.23075 | 21.31500 | 34960 ft | 491 kts | 21° |
| 2026-05-07 16:20 | 49.29267 | 21.35718 | 34969 ft | 491 kts | 21° |
| 2026-05-07 16:20 | 49.35512 | 21.39977 | 34978 ft | 491 kts | 21° |
| 2026-05-07 16:21 | 49.41828 | 21.43927 | 34987 ft | 488 kts | 13° |
| 2026-05-07 16:21 | 49.48439 | 21.46056 | 34990 ft | 485 kts | 7° |
| 2026-05-07 16:22 | 49.55020 | 21.47995 | 34993 ft | 485 kts | 7° |
| 2026-05-07 16:22 | 49.61654 | 21.49971 | 34993 ft | 486 kts | 7° |
| 2026-05-07 16:23 | 49.68288 | 21.51970 | 34994 ft | 486 kts | 7° |
| 2026-05-07 16:23 | 49.74924 | 21.53972 | 34994 ft | 486 kts | 7° |
| 2026-05-07 16:24 | 49.81562 | 21.55972 | 34991 ft | 486 kts | 7° |
| 2026-05-07 16:24 | 49.88156 | 21.57963 | 34992 ft | 486 kts | 7° |
| 2026-05-07 16:25 | 49.94795 | 21.59975 | 34994 ft | 486 kts | 7° |
| 2026-05-07 16:25 | 50.01429 | 21.61973 | 34985 ft | 486 kts | 7° |
| 2026-05-07 16:26 | 50.08067 | 21.63991 | 34977 ft | 486 kts | 8° |
| 2026-05-07 16:26 | 50.14706 | 21.66024 | 34975 ft | 486 kts | 8° |
| 2026-05-07 16:27 | 50.21344 | 21.68062 | 34979 ft | 486 kts | 8° |
| 2026-05-07 16:27 | 50.27936 | 21.70092 | 34973 ft | 486 kts | 8° |
| 2026-05-07 16:28 | 50.34569 | 21.72136 | 34979 ft | 486 kts | 8° |
| 2026-05-07 16:28 | 50.41204 | 21.74175 | 34981 ft | 486 kts | 8° |
| 2026-05-07 16:29 | 50.47828 | 21.76217 | 34975 ft | 485 kts | 8° |
| 2026-05-07 16:29 | 50.54456 | 21.78281 | 34977 ft | 486 kts | 8° |
| 2026-05-07 16:30 | 50.61083 | 21.80354 | 34975 ft | 485 kts | 8° |
| 2026-05-07 16:30 | 50.67710 | 21.82428 | 34975 ft | 486 kts | 8° |
| 2026-05-07 16:31 | 50.74339 | 21.84508 | 34973 ft | 486 kts | 8° |
| 2026-05-07 16:31 | 50.80925 | 21.86585 | 34973 ft | 486 kts | 8° |
| 2026-05-07 16:31 | 50.84236 | 21.87624 | 35076 ft | 486 kts | 8° |
| 2026-05-07 16:32 | 50.87550 | 21.88659 | 35263 ft | 485 kts | 8° |
| 2026-05-07 16:32 | 50.90859 | 21.89692 | 35430 ft | 484 kts | 8° |
| 2026-05-07 16:32 | 50.94165 | 21.90731 | 35589 ft | 484 kts | 8° |
| 2026-05-07 16:32 | 50.97467 | 21.91777 | 35742 ft | 484 kts | 8° |
| 2026-05-07 16:33 | 51.00766 | 21.92830 | 35888 ft | 483 kts | 8° |
| 2026-05-07 16:33 | 51.04063 | 21.93884 | 36036 ft | 483 kts | 8° |
| 2026-05-07 16:33 | 51.07359 | 21.94934 | 36176 ft | 483 kts | 8° |
| 2026-05-07 16:33 | 51.10609 | 21.95965 | 36309 ft | 482 kts | 8° |
| 2026-05-07 16:34 | 51.13900 | 21.97010 | 36444 ft | 482 kts | 8° |
| 2026-05-07 16:34 | 51.17189 | 21.98059 | 36570 ft | 482 kts | 8° |
| 2026-05-07 16:34 | 51.20474 | 21.99113 | 36710 ft | 481 kts | 8° |
| 2026-05-07 16:34 | 51.23747 | 22.00166 | 36873 ft | 480 kts | 8° |
| 2026-05-07 16:35 | 51.27025 | 22.01221 | 36944 ft | 481 kts | 8° |
| 2026-05-07 16:35 | 51.33589 | 22.03337 | 36944 ft | 481 kts | 8° |
| 2026-05-07 16:36 | 51.40151 | 22.05455 | 36948 ft | 481 kts | 8° |
| 2026-05-07 16:36 | 51.46714 | 22.07575 | 36945 ft | 481 kts | 8° |
| 2026-05-07 16:37 | 51.53232 | 22.09690 | 36944 ft | 481 kts | 8° |
| 2026-05-07 16:37 | 51.59789 | 22.11825 | 36951 ft | 481 kts | 8° |
| 2026-05-07 16:38 | 51.66359 | 22.13966 | 36955 ft | 482 kts | 8° |
| 2026-05-07 16:38 | 51.72942 | 22.16117 | 36958 ft | 482 kts | 8° |
| 2026-05-07 16:39 | 51.79513 | 22.18270 | 36956 ft | 482 kts | 8° |
| 2026-05-07 16:39 | 51.86092 | 22.20441 | 36957 ft | 483 kts | 8° |
| 2026-05-07 16:40 | 51.92630 | 22.22599 | 36959 ft | 483 kts | 8° |
| 2026-05-07 16:40 | 51.99214 | 22.24783 | 36959 ft | 483 kts | 8° |
| 2026-05-07 16:41 | 52.05789 | 22.26972 | 36961 ft | 483 kts | 8° |
| 2026-05-07 16:41 | 52.12371 | 22.29162 | 36957 ft | 483 kts | 8° |
| 2026-05-07 16:42 | 52.18954 | 22.31357 | 36957 ft | 483 kts | 8° |
| 2026-05-07 16:42 | 52.25537 | 22.33559 | 36958 ft | 483 kts | 8° |
| 2026-05-07 16:43 | 52.32076 | 22.35761 | 36960 ft | 483 kts | 8° |
| 2026-05-07 16:43 | 52.38660 | 22.37985 | 36965 ft | 483 kts | 8° |
| 2026-05-07 16:44 | 52.45238 | 22.40220 | 36958 ft | 483 kts | 8° |
| 2026-05-07 16:44 | 52.51825 | 22.42455 | 36965 ft | 483 kts | 8° |
| 2026-05-07 16:45 | 52.58414 | 22.44694 | 36957 ft | 483 kts | 8° |
| 2026-05-07 16:45 | 52.64959 | 22.46927 | 36959 ft | 483 kts | 8° |
| 2026-05-07 16:46 | 52.71545 | 22.49192 | 36962 ft | 483 kts | 8° |
| 2026-05-07 16:46 | 52.78133 | 22.51450 | 36958 ft | 483 kts | 8° |
| 2026-05-07 16:47 | 52.84722 | 22.53707 | 36967 ft | 483 kts | 8° |
| 2026-05-07 16:47 | 52.91303 | 22.55979 | 36963 ft | 484 kts | 8° |
| 2026-05-07 16:48 | 52.97847 | 22.58262 | 36966 ft | 484 kts | 8° |
| 2026-05-07 16:48 | 53.04436 | 22.60560 | 36971 ft | 484 kts | 8° |
| 2026-05-07 16:49 | 53.11027 | 22.62860 | 36967 ft | 484 kts | 8° |
| 2026-05-07 16:49 | 53.17620 | 22.65162 | 36969 ft | 484 kts | 8° |
| 2026-05-07 16:50 | 53.24171 | 22.67460 | 36971 ft | 484 kts | 8° |
| 2026-05-07 16:50 | 53.30762 | 22.69777 | 36976 ft | 485 kts | 8° |
| 2026-05-07 16:51 | 53.37362 | 22.72103 | 36976 ft | 485 kts | 8° |
| 2026-05-07 16:51 | 53.43966 | 22.74436 | 36978 ft | 485 kts | 8° |
| 2026-05-07 16:52 | 53.50572 | 22.76783 | 36983 ft | 485 kts | 8° |
| 2026-05-07 16:52 | 53.57179 | 22.79148 | 36984 ft | 486 kts | 8° |
| 2026-05-07 16:53 | 53.63746 | 22.81514 | 36990 ft | 486 kts | 8° |
| 2026-05-07 16:53 | 53.70363 | 22.83897 | 36990 ft | 486 kts | 8° |
| 2026-05-07 16:54 | 53.76981 | 22.86273 | 36998 ft | 487 kts | 8° |
| 2026-05-07 16:54 | 53.83614 | 22.88662 | 36993 ft | 488 kts | 8° |
| 2026-05-07 16:55 | 53.90211 | 22.91046 | 37008 ft | 488 kts | 8° |
| 2026-05-07 16:55 | 53.96858 | 22.93466 | 37001 ft | 489 kts | 8° |
| 2026-05-07 16:56 | 54.03510 | 22.95894 | 37016 ft | 489 kts | 8° |
| 2026-05-07 16:56 | 54.13488 | 22.99558 | 37007 ft | 490 kts | 8° |
| 2026-05-07 16:57 | 54.20150 | 23.02009 | 37011 ft | 490 kts | 8° |
| 2026-05-07 16:57 | 54.26817 | 23.04460 | 37014 ft | 490 kts | 8° |
| 2026-05-07 16:58 | 54.33444 | 23.06889 | 37013 ft | 490 kts | 8° |
| 2026-05-07 16:58 | 54.40142 | 23.09063 | 37018 ft | 490 kts | 6° |
| 2026-05-07 16:59 | 54.46853 | 23.11115 | 37019 ft | 490 kts | 7° |
| 2026-05-07 16:59 | 54.53791 | 23.13296 | 37016 ft | 491 kts | 7° |
| 2026-05-07 17:00 | 54.60508 | 23.15481 | 37017 ft | 492 kts | 7° |
| 2026-05-07 17:00 | 54.67189 | 23.17679 | 37013 ft | 492 kts | 7° |
| 2026-05-07 17:01 | 54.73927 | 23.19890 | 37016 ft | 493 kts | 7° |
| 2026-05-07 17:01 | 54.80677 | 23.22096 | 37017 ft | 494 kts | 7° |
| 2026-05-07 17:02 | 54.87428 | 23.24313 | 37018 ft | 495 kts | 7° |
| 2026-05-07 17:02 | 54.94196 | 23.26550 | 37020 ft | 495 kts | 7° |
| 2026-05-07 17:03 | 55.00930 | 23.28775 | 37026 ft | 496 kts | 7° |
| 2026-05-07 17:03 | 55.07719 | 23.31037 | 37029 ft | 497 kts | 7° |
| 2026-05-07 17:04 | 55.14511 | 23.33300 | 37032 ft | 498 kts | 7° |
| 2026-05-07 17:04 | 55.21319 | 23.35573 | 37037 ft | 498 kts | 7° |
| 2026-05-07 17:05 | 55.28137 | 23.37859 | 37043 ft | 499 kts | 7° |
| 2026-05-07 17:05 | 55.34963 | 23.40160 | 37041 ft | 500 kts | 7° |
| 2026-05-07 17:06 | 55.41748 | 23.42449 | 37046 ft | 500 kts | 7° |
| 2026-05-07 17:06 | 55.48584 | 23.44756 | 37049 ft | 500 kts | 7° |
| 2026-05-07 17:07 | 55.55420 | 23.47094 | 37050 ft | 500 kts | 7° |
| 2026-05-07 17:07 | 55.62257 | 23.49433 | 37055 ft | 500 kts | 7° |
| 2026-05-07 17:08 | 55.69086 | 23.51775 | 37057 ft | 500 kts | 7° |
| 2026-05-07 17:08 | 55.75877 | 23.54118 | 37056 ft | 500 kts | 7° |
| 2026-05-07 17:09 | 55.82712 | 23.56464 | 37059 ft | 500 kts | 7° |
| 2026-05-07 17:09 | 55.89545 | 23.58827 | 37065 ft | 500 kts | 7° |
| 2026-05-07 17:10 | 55.96375 | 23.61206 | 37060 ft | 500 kts | 7° |
| 2026-05-07 17:10 | 56.03156 | 23.63579 | 37063 ft | 500 kts | 7° |
| 2026-05-07 17:11 | 56.09980 | 23.65958 | 37065 ft | 499 kts | 7° |
| 2026-05-07 17:11 | 56.16822 | 23.68356 | 37066 ft | 499 kts | 7° |
| 2026-05-07 17:12 | 56.23607 | 23.70755 | 37072 ft | 499 kts | 7° |
| 2026-05-07 17:12 | 56.30420 | 23.73167 | 37069 ft | 499 kts | 7° |
| 2026-05-07 17:13 | 56.37184 | 23.75572 | 37070 ft | 499 kts | 7° |
| 2026-05-07 17:13 | 56.43989 | 23.77944 | 37069 ft | 498 kts | 6° |
| 2026-05-07 17:14 | 56.50803 | 23.80261 | 37067 ft | 498 kts | 6° |
| 2026-05-07 17:14 | 56.57614 | 23.82581 | 37070 ft | 498 kts | 6° |
| 2026-05-07 17:15 | 56.64375 | 23.84917 | 37077 ft | 498 kts | 7° |
| 2026-05-07 17:15 | 56.71174 | 23.87280 | 37079 ft | 497 kts | 6° |
| 2026-05-07 17:16 | 56.77963 | 23.89641 | 37069 ft | 496 kts | 6° |
| 2026-05-07 17:16 | 56.84735 | 23.91994 | 37090 ft | 495 kts | 6° |
| 2026-05-07 17:17 | 56.91493 | 23.94364 | 37093 ft | 494 kts | 6° |
| 2026-05-07 17:17 | 56.98187 | 23.96713 | 37092 ft | 493 kts | 6° |
| 2026-05-07 17:18 | 57.04920 | 23.99112 | 37092 ft | 493 kts | 6° |
| 2026-05-07 17:18 | 57.11645 | 24.01513 | 37086 ft | 492 kts | 6° |
| 2026-05-07 17:19 | 57.18364 | 24.03891 | 37087 ft | 491 kts | 6° |
| 2026-05-07 17:19 | 57.25062 | 24.06276 | 37086 ft | 491 kts | 6° |
| 2026-05-07 17:20 | 57.31702 | 24.08660 | 37081 ft | 491 kts | 6° |
| 2026-05-07 17:20 | 57.38406 | 24.11072 | 37087 ft | 491 kts | 6° |
| 2026-05-07 17:21 | 57.45106 | 24.13495 | 37091 ft | 490 kts | 6° |
| 2026-05-07 17:21 | 57.51802 | 24.15944 | 37091 ft | 491 kts | 6° |
| 2026-05-07 17:22 | 57.58435 | 24.18617 | 37089 ft | 491 kts | 7° |
| 2026-05-07 17:22 | 57.65091 | 24.21468 | 37096 ft | 491 kts | 8° |
| 2026-05-07 17:23 | 57.71753 | 24.24314 | 37092 ft | 491 kts | 7° |
| 2026-05-07 17:23 | 57.78415 | 24.27138 | 37092 ft | 491 kts | 7° |
| 2026-05-07 17:24 | 57.85033 | 24.29927 | 37092 ft | 491 kts | 7° |
| 2026-05-07 17:24 | 57.91694 | 24.32748 | 37089 ft | 491 kts | 7° |
| 2026-05-07 17:25 | 57.97224 | 24.35093 | 37093 ft | 490 kts | 7° |
| 2026-05-07 17:25 | 58.03883 | 24.37925 | 37094 ft | 491 kts | 7° |
| 2026-05-07 17:26 | 58.10542 | 24.40771 | 37088 ft | 491 kts | 7° |
| 2026-05-07 17:26 | 58.18277 | 24.44102 | 37088 ft | 491 kts | 7° |
| 2026-05-07 17:27 | 58.23810 | 24.46508 | 37088 ft | 491 kts | 7° |
| 2026-05-07 17:27 | 58.30465 | 24.49406 | 37089 ft | 491 kts | 7° |
| 2026-05-07 17:28 | 58.37118 | 24.52320 | 37092 ft | 490 kts | 7° |
| 2026-05-07 17:28 | 58.43749 | 24.55301 | 37096 ft | 489 kts | 8° |
| 2026-05-07 17:29 | 58.50350 | 24.58292 | 37096 ft | 487 kts | 8° |
| 2026-05-07 17:29 | 58.56882 | 24.61272 | 37046 ft | 480 kts | 8° |
| 2026-05-07 17:30 | 58.63334 | 24.64253 | 37057 ft | 475 kts | 8° |
| 2026-05-07 17:30 | 58.69752 | 24.67240 | 37061 ft | 474 kts | 8° |
| 2026-05-07 17:31 | 58.76153 | 24.70235 | 37065 ft | 474 kts | 7° |
| 2026-05-07 17:31 | 58.82602 | 24.72224 | 37065 ft | 468 kts | 1° |
| 2026-05-07 17:32 | 58.89064 | 24.73866 | 37078 ft | 468 kts | 1° |
| 2026-05-07 17:32 | 58.92257 | 24.74659 | 36806 ft | 469 kts | 1° |
| 2026-05-07 17:32 | 58.95504 | 24.75468 | 35344 ft | 474 kts | 1° |
| 2026-05-07 17:33 | 58.98801 | 24.76291 | 34002 ft | 478 kts | 1° |
| 2026-05-07 17:33 | 59.02084 | 24.77126 | 32767 ft | 473 kts | 1° |
| 2026-05-07 17:33 | 59.05322 | 24.77962 | 31738 ft | 465 kts | 1° |
| 2026-05-07 17:33 | 59.08502 | 24.78789 | 30787 ft | 457 kts | 1° |
| 2026-05-07 17:34 | 59.11630 | 24.79604 | 29676 ft | 451 kts | 1° |
| 2026-05-07 17:34 | 59.14712 | 24.80401 | 28755 ft | 441 kts | 1° |
| 2026-05-07 17:34 | 59.17699 | 24.81178 | 28263 ft | 425 kts | 0° |
| 2026-05-07 17:34 | 59.20587 | 24.81932 | 27990 ft | 415 kts | 0° |
| 2026-05-07 17:35 | 59.23392 | 24.82662 | 27539 ft | 410 kts | 0° |
| 2026-05-07 17:35 | 59.26211 | 24.83393 | 27064 ft | 407 kts | 0° |
| 2026-05-07 17:35 | 59.29005 | 24.84115 | 26609 ft | 403 kts | 0° |
| 2026-05-07 17:35 | 59.31777 | 24.84827 | 26149 ft | 400 kts | 0° |
| 2026-05-07 17:36 | 59.34531 | 24.85537 | 25683 ft | 398 kts | 0° |
| 2026-05-07 17:36 | 59.37269 | 24.86249 | 25220 ft | 396 kts | 0° |
| 2026-05-07 17:36 | 59.39992 | 24.86958 | 24742 ft | 394 kts | 360° |
| 2026-05-07 17:36 | 59.42703 | 24.87658 | 24267 ft | 392 kts | 360° |
| 2026-05-07 17:37 | 59.45368 | 24.88350 | 23782 ft | 391 kts | 0° |
| 2026-05-07 17:37 | 59.48064 | 24.89061 | 23236 ft | 390 kts | 0° |
| 2026-05-07 17:37 | 59.50744 | 24.89776 | 22737 ft | 387 kts | 0° |
| 2026-05-07 17:37 | 59.53398 | 24.90483 | 22245 ft | 384 kts | 0° |
| 2026-05-07 17:38 | 59.56047 | 24.91188 | 21762 ft | 382 kts | 0° |
| 2026-05-07 17:38 | 59.58667 | 24.91886 | 21282 ft | 380 kts | 0° |
| 2026-05-07 17:38 | 59.61277 | 24.92579 | 20801 ft | 377 kts | 0° |
| 2026-05-07 17:38 | 59.63871 | 24.93266 | 20325 ft | 375 kts | 0° |
| 2026-05-07 17:39 | 59.66451 | 24.93950 | 19855 ft | 373 kts | 0° |
| 2026-05-07 17:39 | 59.69016 | 24.94634 | 19387 ft | 371 kts | 0° |
| 2026-05-07 17:39 | 59.71534 | 24.95305 | 18931 ft | 369 kts | 0° |
| 2026-05-07 17:39 | 59.74073 | 24.95984 | 18467 ft | 367 kts | 1° |
| 2026-05-07 17:40 | 59.76600 | 24.96661 | 17960 ft | 365 kts | 1° |
| 2026-05-07 17:40 | 59.79105 | 24.97331 | 17512 ft | 361 kts | 1° |
| 2026-05-07 17:40 | 59.81582 | 24.97994 | 17063 ft | 355 kts | 1° |
| 2026-05-07 17:40 | 59.83987 | 24.98647 | 16641 ft | 346 kts | 1° |
| 2026-05-07 17:41 | 59.86309 | 24.99277 | 16223 ft | 344 kts | 1° |
| 2026-05-07 17:41 | 59.88674 | 24.99913 | 15806 ft | 342 kts | 1° |
| 2026-05-07 17:41 | 59.91025 | 25.00542 | 15388 ft | 340 kts | 1° |
| 2026-05-07 17:41 | 59.93362 | 25.01169 | 14973 ft | 338 kts | 2° |
| 2026-05-07 17:42 | 59.95686 | 25.01789 | 14559 ft | 336 kts | 2° |
| 2026-05-07 17:42 | 59.97997 | 25.02410 | 14143 ft | 334 kts | 2° |
| 2026-05-07 17:42 | 60.00267 | 25.03025 | 13710 ft | 333 kts | 3° |
| 2026-05-07 17:42 | 60.02512 | 25.04204 | 13236 ft | 339 kts | 21° |
| 2026-05-07 17:43 | 60.04588 | 25.06414 | 12773 ft | 335 kts | 25° |
| 2026-05-07 17:43 | 60.06588 | 25.08678 | 12321 ft | 326 kts | 26° |
| 2026-05-07 17:43 | 60.08538 | 25.10884 | 11870 ft | 318 kts | 26° |
| 2026-05-07 17:43 | 60.10439 | 25.13021 | 11432 ft | 310 kts | 26° |
| 2026-05-07 17:44 | 60.12306 | 25.15103 | 10997 ft | 304 kts | 26° |
| 2026-05-07 17:44 | 60.14136 | 25.17125 | 10564 ft | 297 kts | 26° |
| 2026-05-07 17:44 | 60.15933 | 25.19089 | 10139 ft | 291 kts | 26° |
| 2026-05-07 17:44 | 60.17678 | 25.20975 | 9697 ft | 286 kts | 26° |
| 2026-05-07 17:45 | 60.19419 | 25.22841 | 9234 ft | 282 kts | 26° |
| 2026-05-07 17:45 | 60.21148 | 25.24685 | 8774 ft | 279 kts | 26° |
| 2026-05-07 17:45 | 60.22847 | 25.26491 | 8322 ft | 274 kts | 26° |
| 2026-05-07 17:45 | 60.24521 | 25.28264 | 7878 ft | 270 kts | 26° |
| 2026-05-07 17:46 | 60.26173 | 25.30009 | 7433 ft | 266 kts | 26° |
| 2026-05-07 17:46 | 60.27881 | 25.31280 | 6994 ft | 259 kts | 5° |
| 2026-05-07 17:46 | 60.29636 | 25.30847 | 6576 ft | 255 kts | 340° |
| 2026-05-07 17:46 | 60.31283 | 25.29491 | 6126 ft | 256 kts | 336° |
| 2026-05-07 17:47 | 60.32901 | 25.28027 | 5672 ft | 255 kts | 336° |
| 2026-05-07 17:47 | 60.34498 | 25.26577 | 5226 ft | 255 kts | 335° |
| 2026-05-07 17:47 | 60.36104 | 25.25128 | 5015 ft | 251 kts | 336° |
| 2026-05-07 17:47 | 60.37702 | 25.23689 | 5008 ft | 252 kts | 336° |
| 2026-05-07 17:48 | 60.39305 | 25.22244 | 5020 ft | 252 kts | 336° |
| 2026-05-07 17:48 | 60.40909 | 25.20803 | 5013 ft | 252 kts | 336° |
| 2026-05-07 17:48 | 60.42513 | 25.19365 | 5016 ft | 252 kts | 336° |
| 2026-05-07 17:48 | 60.44076 | 25.17761 | 5013 ft | 252 kts | 322° |
| 2026-05-07 17:49 | 60.45157 | 25.15007 | 5003 ft | 253 kts | 293° |
| 2026-05-07 17:49 | 60.45438 | 25.11481 | 4819 ft | 259 kts | 265° |
| 2026-05-07 17:49 | 60.44848 | 25.08072 | 4457 ft | 259 kts | 240° |
| 2026-05-07 17:49 | 60.43974 | 25.04913 | 4083 ft | 255 kts | 253° |
| 2026-05-07 17:50 | 60.43848 | 25.01468 | 3712 ft | 249 kts | 283° |
| 2026-05-07 17:50 | 60.44594 | 24.98375 | 3368 ft | 246 kts | 313° |
| 2026-05-07 17:50 | 60.45987 | 24.96401 | 3001 ft | 246 kts | 333° |
| 2026-05-07 17:50 | 60.47548 | 24.94948 | 2629 ft | 247 kts | 335° |
| 2026-05-07 17:51 | 60.49120 | 24.93562 | 2367 ft | 246 kts | 335° |
| 2026-05-07 17:51 | 60.50683 | 24.92195 | 2610 ft | 246 kts | 336° |
| 2026-05-07 17:51 | 60.52264 | 24.90808 | 2903 ft | 249 kts | 336° |
| 2026-05-07 17:51 | 60.53853 | 24.89409 | 3000 ft | 249 kts | 336° |
| 2026-05-07 17:52 | 60.55420 | 24.87940 | 3011 ft | 247 kts | 328° |
| 2026-05-07 17:52 | 60.56593 | 24.85454 | 3013 ft | 247 kts | 298° |
| 2026-05-07 17:52 | 60.56974 | 24.82149 | 3014 ft | 242 kts | 268° |
| 2026-05-07 17:52 | 60.56469 | 24.78991 | 3014 ft | 237 kts | 238° |
| 2026-05-07 17:53 | 60.55304 | 24.76653 | 3017 ft | 240 kts | 210° |
| 2026-05-07 17:53 | 60.53744 | 24.75822 | 3010 ft | 227 kts | 185° |
| 2026-05-07 17:53 | 60.52216 | 24.75741 | 3009 ft | 215 kts | 179° |
| 2026-05-07 17:53 | 60.50823 | 24.76670 | 3019 ft | 215 kts | 138° |
| 2026-05-07 17:54 | 60.49843 | 24.78965 | 3015 ft | 217 kts | 132° |
| 2026-05-07 17:54 | 60.48605 | 24.80563 | 3013 ft | 207 kts | 160° |
| 2026-05-07 17:54 | 60.47336 | 24.81679 | 3007 ft | 193 kts | 154° |
| 2026-05-07 17:54 | 60.46156 | 24.82900 | 3012 ft | 191 kts | 153° |
| 2026-05-07 17:55 | 60.44974 | 24.84128 | 3012 ft | 195 kts | 153° |
| 2026-05-07 17:55 | 60.43747 | 24.85399 | 2704 ft | 203 kts | 154° |
| 2026-05-07 17:55 | 60.42482 | 24.86708 | 2351 ft | 202 kts | 154° |
| 2026-05-07 17:55 | 60.41252 | 24.87980 | 2080 ft | 194 kts | 154° |
| 2026-05-07 17:56 | 60.40083 | 24.89187 | 1801 ft | 184 kts | 154° |
| 2026-05-07 17:56 | 60.38976 | 24.90328 | 1531 ft | 174 kts | 155° |
| 2026-05-07 17:56 | 60.37942 | 24.91395 | 1304 ft | 161 kts | 155° |
| 2026-05-07 17:56 | 60.36980 | 24.92386 | 1082 ft | 150 kts | 155° |
| 2026-05-07 17:57 | 60.36086 | 24.93304 | 888 ft | 140 kts | 155° |
| 2026-05-07 17:57 | 60.35523 | 24.93891 | 730 ft | 135 kts | 154° |
| 2026-05-07 17:57 | 60.34421 | 24.95021 | 504 ft | 131 kts | 156° |
| 2026-05-07 17:57 | 60.33608 | 24.95844 | 347 ft | 130 kts | 154° |
| 2026-05-07 17:58 | 60.32806 | 24.96693 | 203 ft | 129 kts | 154° |
| 2026-05-07 17:58 | 60.32077 | 24.97424 | 155 ft | 93 kts | 153° |
| 2026-05-07 17:58 | 60.31678 | 24.97837 | 152 ft | 39 kts | 153° |
| 2026-05-07 17:58 | 60.31515 | 24.97989 | 153 ft | 15 kts | 171° |
| 2026-05-07 17:59 | 60.31434 | 24.97930 | 155 ft | 12 kts | 237° |
| 2026-05-07 17:59 | 60.31419 | 24.97876 | 155 ft | 0 kts | 240° |
| 2026-05-07 18:00 | 60.31412 | 24.97851 | 155 ft | 8 kts | 240° |
| 2026-05-07 18:00 | 60.31422 | 24.97757 | 156 ft | 7 kts | 327° |
| 2026-05-07 18:00 | 60.31502 | 24.97675 | 156 ft | 20 kts | 333° |
| 2026-05-07 18:01 | 60.31625 | 24.97550 | 158 ft | 18 kts | 332° |
| 2026-05-07 18:01 | 60.31730 | 24.97443 | 159 ft | 16 kts | 333° |
| 2026-05-07 18:01 | 60.31827 | 24.97344 | 161 ft | 15 kts | 332° |
| 2026-05-07 18:01 | 60.31943 | 24.97223 | 164 ft | 23 kts | 333° |
| 2026-05-07 18:02 | 60.32234 | 24.96923 | 165 ft | 20 kts | 332° |
| 2026-05-07 18:02 | 60.32307 | 24.96824 | 165 ft | 9 kts | 290° |
| 2026-05-07 18:02 | 60.32261 | 24.96688 | 167 ft | 15 kts | 226° |
| 2026-05-07 18:03 | 60.32186 | 24.96524 | 168 ft | 19 kts | 228° |
| 2026-05-07 18:03 | 60.32083 | 24.96299 | 168 ft | 23 kts | 227° |
| 2026-05-07 18:03 | 60.31975 | 24.96057 | 169 ft | 23 kts | 227° |
| 2026-05-07 18:03 | 60.31864 | 24.95814 | 169 ft | 25 kts | 227° |
| 2026-05-07 18:04 | 60.31757 | 24.95579 | 171 ft | 22 kts | 228° |
| 2026-05-07 18:04 | 60.31654 | 24.95352 | 170 ft | 20 kts | 227° |
| 2026-05-07 18:04 | 60.31560 | 24.95147 | 170 ft | 16 kts | 226° |
| 2026-05-07 18:04 | 60.31486 | 24.94993 | 168 ft | 12 kts | 222° |
| 2026-05-07 18:05 | 60.31427 | 24.95014 | 167 ft | 11 kts | 129° |
| 2026-05-07 18:05 | 60.31367 | 24.95144 | 166 ft | 13 kts | 135° |
| 2026-05-07 18:05 | 60.31306 | 24.95256 | 166 ft | 8 kts | 138° |
| 2026-05-07 18:05 | 60.31301 | 24.95266 | 166 ft | 0 kts | 137° |
| 2026-05-07 18:06 | 60.31288 | 24.95289 | 166 ft | 9 kts | 137° |
| 2026-05-07 18:06 | 60.31238 | 24.95380 | 166 ft | 8 kts | 137° |
| 2026-05-07 18:07 | 60.31199 | 24.95453 | 166 ft | 6 kts | 136° |
| 2026-05-07 18:07 | 60.31197 | 24.95457 | 166 ft | 0 kts | 136° |
| 2026-05-07 18:08 | 60.31194 | 24.95462 | 166 ft | 4 kts | 136° |
| 2026-05-07 18:08 | 60.31159 | 24.95541 | 166 ft | 7 kts | 113° |
| 2026-05-07 18:09 | 60.31184 | 24.95645 | 167 ft | 11 kts | 49° |
| 2026-05-07 18:09 | 60.31247 | 24.95782 | 167 ft | 13 kts | 47° |
| 2026-05-07 18:09 | 60.31307 | 24.95913 | 167 ft | 12 kts | 47° |
| 2026-05-07 18:09 | 60.31359 | 24.96027 | 167 ft | 6 kts | 47° |
| 2026-05-07 18:10 | 60.31361 | 24.96030 | 167 ft | 0 kts | 47° |
| 2026-05-07 18:10 | 60.31363 | 24.96037 | 167 ft | 3 kts | 47° |
| 2026-05-07 18:10 | 60.31385 | 24.96020 | 167 ft | 6 kts | 318° |
| 2026-05-07 18:11 | 60.31435 | 24.95978 | 167 ft | 6 kts | 343° |
| 2026-05-07 18:11 | 60.31450 | 24.95968 | 167 ft | 0 kts | 343° |